createdAt,value
2022-11-23T00:00:19.315Z,29.59
2022-11-23T00:00:50.695Z,29.87
2022-11-23T00:01:25.878Z,29.76
2022-11-23T00:01:57.368Z,29.82
2022-11-23T00:02:28.825Z,29.80
2022-11-23T00:03:00.268Z,29.92
2022-11-23T00:03:31.615Z,29.79
2022-11-23T00:04:06.845Z,29.60
2022-11-23T00:04:38.170Z,29.77
2022-11-23T00:05:09.491Z,30.00
2022-11-23T00:05:40.925Z,30.04
2022-11-23T00:06:12.346Z,29.99
2022-11-23T00:06:43.673Z,30.21
2022-11-23T00:07:15.135Z,30.05
2022-11-23T00:07:46.675Z,29.91
2022-11-23T00:08:18.090Z,29.96
2022-11-23T00:08:49.517Z,30.24
2022-11-23T00:09:20.984Z,30.10
2022-11-23T00:09:52.438Z,30.18
2022-11-23T00:10:23.849Z,29.78
2022-11-23T00:10:58.092Z,30.03
2022-11-23T00:11:29.658Z,30.04
2022-11-23T00:12:01.053Z,29.67
2022-11-23T00:12:32.522Z,30.01
2022-11-23T00:13:03.928Z,29.84
2022-11-23T00:13:35.306Z,29.75
2022-11-23T00:14:06.713Z,29.73
2022-11-23T00:14:38.113Z,30.02
2022-11-23T00:15:09.683Z,29.75
2022-11-23T00:15:41.069Z,29.87
2022-11-23T00:16:16.134Z,29.94
2022-11-23T00:16:47.515Z,29.96
2022-11-23T00:17:18.919Z,30.10
2022-11-23T00:17:50.300Z,29.83
2022-11-23T00:18:21.726Z,29.74
2022-11-23T00:18:55.558Z,30.02
2022-11-23T00:19:27.042Z,29.87
2022-11-23T00:19:58.506Z,29.97
2022-11-23T00:20:29.985Z,29.99
2022-11-23T00:21:05.746Z,30.11
2022-11-23T00:21:37.198Z,30.06
2022-11-23T00:22:08.615Z,30.08
2022-11-23T00:22:39.987Z,30.18
2022-11-23T00:23:11.450Z,30.05
2022-11-23T00:23:42.890Z,29.91
2022-11-23T00:24:14.295Z,29.75
2022-11-23T00:24:45.753Z,30.18
2022-11-23T00:25:17.266Z,30.00
2022-11-23T00:25:48.739Z,29.76
2022-11-23T00:26:20.176Z,29.76
2022-11-23T00:26:51.611Z,30.10
2022-11-23T00:27:23.108Z,30.12
2022-11-23T00:27:54.519Z,29.79
2022-11-23T00:28:25.939Z,29.85
2022-11-23T00:28:57.326Z,30.06
2022-11-23T00:29:28.945Z,29.94
2022-11-23T00:30:00.577Z,30.09
2022-11-23T00:30:31.999Z,30.04
2022-11-23T00:31:03.540Z,29.97
2022-11-23T00:31:34.915Z,30.00
2022-11-23T00:32:06.288Z,29.97
2022-11-23T00:32:37.684Z,29.83
2022-11-23T00:33:09.061Z,30.02
2022-11-23T00:33:40.468Z,30.00
2022-11-23T00:34:11.921Z,29.89
2022-11-23T00:34:43.382Z,29.96
2022-11-23T00:35:14.943Z,30.03
2022-11-23T00:35:46.338Z,30.07
2022-11-23T00:36:17.893Z,29.66
2022-11-23T00:36:50.627Z,30.05
2022-11-23T00:37:22.068Z,30.15
2022-11-23T00:37:53.519Z,29.97
2022-11-23T00:38:24.913Z,29.95
2022-11-23T00:38:56.349Z,29.82
2022-11-23T00:39:27.740Z,29.94
2022-11-23T00:39:59.156Z,30.03
2022-11-23T00:40:30.658Z,30.08
2022-11-23T00:41:02.749Z,30.18
2022-11-23T00:41:34.235Z,29.79
2022-11-23T00:42:05.642Z,29.66
2022-11-23T00:42:38.327Z,29.98
2022-11-23T00:43:09.898Z,30.08
2022-11-23T00:43:41.355Z,29.95
2022-11-23T00:44:12.894Z,29.97
2022-11-23T00:44:44.406Z,30.07
2022-11-23T00:45:15.865Z,30.04
2022-11-23T00:45:47.333Z,30.08
2022-11-23T00:46:18.731Z,30.07
2022-11-23T00:46:50.189Z,30.07
2022-11-23T00:47:21.600Z,29.66
2022-11-23T00:47:53.017Z,30.10
2022-11-23T00:48:24.590Z,29.94
2022-11-23T00:48:56.276Z,30.10
2022-11-23T00:49:27.694Z,29.75
2022-11-23T00:49:59.122Z,30.02
2022-11-23T00:50:30.498Z,30.02
2022-11-23T00:51:04.373Z,29.81
2022-11-23T00:51:36.372Z,30.04
2022-11-23T00:52:07.805Z,30.14
2022-11-23T00:52:39.232Z,29.88
2022-11-23T00:53:10.631Z,29.85
2022-11-23T00:53:42.138Z,29.84
2022-11-23T00:54:13.552Z,29.97
2022-11-23T00:54:45.010Z,30.04
2022-11-23T00:55:16.371Z,29.85
2022-11-23T00:55:51.432Z,30.10
2022-11-23T00:56:22.930Z,29.63
2022-11-23T00:56:54.348Z,30.05
2022-11-23T00:57:25.770Z,30.20
2022-11-23T00:57:57.958Z,30.07
2022-11-23T00:58:29.453Z,30.07
2022-11-23T00:59:01.051Z,30.08
2022-11-23T00:59:32.593Z,29.89
2022-11-23T01:00:04.967Z,30.05
2022-11-23T01:00:36.408Z,30.08
2022-11-23T01:01:11.329Z,29.70
2022-11-23T01:01:42.870Z,29.99
2022-11-23T01:02:14.354Z,30.04
2022-11-23T01:02:45.811Z,29.77
2022-11-23T01:03:17.365Z,29.80
2022-11-23T01:03:49.672Z,30.09
2022-11-23T01:04:21.067Z,30.07
2022-11-23T01:04:52.440Z,30.07
2022-11-23T01:05:23.839Z,29.68
2022-11-23T01:05:55.240Z,29.77
2022-11-23T01:06:33.226Z,30.20
2022-11-23T01:07:04.695Z,29.99
2022-11-23T01:07:36.212Z,30.09
2022-11-23T01:08:07.754Z,29.78
2022-11-23T01:08:39.197Z,29.99
2022-11-23T01:09:14.528Z,29.84
2022-11-23T01:09:45.959Z,29.88
2022-11-23T01:10:17.347Z,29.83
2022-11-23T01:10:48.755Z,29.78
2022-11-23T01:11:20.449Z,29.87
2022-11-23T01:11:52.302Z,30.03
2022-11-23T01:12:23.734Z,29.93
2022-11-23T01:12:55.139Z,29.94
2022-11-23T01:13:26.614Z,29.88
2022-11-23T01:13:58.217Z,29.97
2022-11-23T01:14:29.639Z,29.95
2022-11-23T01:15:01.114Z,29.76
2022-11-23T01:15:32.600Z,30.08
2022-11-23T01:16:04.110Z,29.93
2022-11-23T01:16:36.555Z,30.08
2022-11-23T01:17:08.010Z,29.79
2022-11-23T01:17:39.454Z,30.07
2022-11-23T01:18:10.974Z,30.03
2022-11-23T01:18:42.447Z,30.12
2022-11-23T01:19:14.604Z,29.86
2022-11-23T01:19:46.123Z,29.96
2022-11-23T01:20:17.603Z,29.75
2022-11-23T01:20:49.118Z,29.98
2022-11-23T01:21:20.482Z,29.84
2022-11-23T01:21:51.909Z,29.97
2022-11-23T01:22:23.558Z,29.90
2022-11-23T01:22:54.947Z,30.25
2022-11-23T01:23:28.207Z,29.90
2022-11-23T01:23:59.692Z,30.11
2022-11-23T01:24:31.247Z,29.83
2022-11-23T01:25:02.727Z,30.22
2022-11-23T01:25:35.784Z,30.14
2022-11-23T01:26:07.768Z,29.99
2022-11-23T01:26:39.682Z,30.11
2022-11-23T01:27:11.074Z,29.86
2022-11-23T01:27:42.489Z,30.01
2022-11-23T01:28:13.959Z,30.26
2022-11-23T01:28:45.312Z,29.93
2022-11-23T01:29:16.830Z,30.24
2022-11-23T01:29:48.271Z,30.08
2022-11-23T01:30:19.884Z,29.89
2022-11-23T01:30:51.348Z,29.97
2022-11-23T01:31:23.182Z,30.14
2022-11-23T01:31:54.608Z,30.13
2022-11-23T01:32:26.032Z,30.12
2022-11-23T01:32:57.449Z,30.21
2022-11-23T01:33:28.853Z,29.93
2022-11-23T01:34:00.811Z,29.83
2022-11-23T01:34:32.358Z,30.01
2022-11-23T01:35:03.850Z,30.29
2022-11-23T01:35:35.226Z,30.21
2022-11-23T01:36:12.092Z,30.13
2022-11-23T01:36:43.709Z,30.20
2022-11-23T01:37:15.104Z,30.14
2022-11-23T01:37:46.558Z,30.21
2022-11-23T01:38:18.571Z,30.09
2022-11-23T01:38:50.150Z,30.14
2022-11-23T01:39:21.590Z,30.25
2022-11-23T01:39:53.138Z,29.94
2022-11-23T01:40:24.553Z,29.84
2022-11-23T01:40:55.974Z,29.92
2022-11-23T01:41:28.322Z,29.88
2022-11-23T01:41:59.727Z,30.31
2022-11-23T01:43:09.721Z,30.14
2022-11-23T01:43:41.168Z,30.29
2022-11-23T01:44:21.250Z,30.20
2022-11-23T01:44:52.667Z,30.08
2022-11-23T01:45:42.434Z,30.38
2022-11-23T01:46:13.894Z,30.28
2022-11-23T01:46:45.326Z,30.26
2022-11-23T01:47:16.788Z,30.03
2022-11-23T01:47:48.240Z,29.99
2022-11-23T01:48:24.038Z,30.36
2022-11-23T01:49:01.971Z,30.21
2022-11-23T01:49:34.712Z,30.13
2022-11-23T01:50:06.459Z,30.23
2022-11-23T01:50:37.859Z,30.14
2022-11-23T01:51:11.043Z,30.03
2022-11-23T01:51:43.856Z,30.22
2022-11-23T01:52:16.423Z,30.24
2022-11-23T01:52:47.857Z,29.98
2022-11-23T01:53:19.408Z,30.26
2022-11-23T01:53:51.778Z,30.28
2022-11-23T01:54:31.174Z,29.88
2022-11-23T01:55:08.171Z,30.01
2022-11-23T01:55:39.910Z,30.09
2022-11-23T01:56:13.001Z,29.97
2022-11-23T01:56:46.196Z,29.99
2022-11-23T01:57:33.298Z,30.36
2022-11-23T01:58:04.703Z,30.36
2022-11-23T01:58:37.433Z,30.13
2022-11-23T01:59:09.888Z,29.97
2022-11-23T01:59:41.272Z,30.26
2022-11-23T02:00:12.921Z,30.27
2022-11-23T02:00:44.357Z,30.20
2022-11-23T02:01:15.862Z,30.04
2022-11-23T02:01:47.365Z,30.22
2022-11-23T02:02:18.757Z,29.89
2022-11-23T02:02:59.435Z,30.23
2022-11-23T02:03:30.839Z,30.00
2022-11-23T02:04:02.331Z,29.99
2022-11-23T02:04:35.142Z,29.97
2022-11-23T02:05:06.692Z,30.08
2022-11-23T02:05:39.267Z,30.20
2022-11-23T02:06:14.566Z,30.04
2022-11-23T02:06:46.286Z,29.97
2022-11-23T02:07:17.745Z,29.95
2022-11-23T02:07:49.223Z,30.08
2022-11-23T02:08:20.758Z,30.18
2022-11-23T02:08:52.129Z,30.23
2022-11-23T02:09:23.582Z,29.91
2022-11-23T02:09:55.041Z,30.04
2022-11-23T02:10:26.395Z,30.03
2022-11-23T02:10:57.935Z,30.32
2022-11-23T02:11:29.367Z,30.00
2022-11-23T02:12:00.849Z,30.09
2022-11-23T02:12:32.247Z,29.79
2022-11-23T02:13:04.902Z,29.99
2022-11-23T02:13:36.274Z,30.23
2022-11-23T02:14:07.668Z,29.97
2022-11-23T02:14:39.142Z,30.22
2022-11-23T02:15:10.631Z,30.21
2022-11-23T02:15:42.031Z,29.88
2022-11-23T02:16:13.667Z,29.97
2022-11-23T02:16:45.156Z,30.17
2022-11-23T02:17:16.584Z,30.15
2022-11-23T02:17:48.006Z,30.29
2022-11-23T02:18:20.143Z,30.02
2022-11-23T02:18:51.528Z,30.07
2022-11-23T02:19:31.117Z,30.09
2022-11-23T02:20:09.597Z,30.24
2022-11-23T02:20:43.662Z,30.29
2022-11-23T02:21:15.193Z,30.22
2022-11-23T02:21:46.599Z,29.99
2022-11-23T02:22:29.661Z,30.17
2022-11-23T02:23:03.962Z,30.07
2022-11-23T02:23:54.172Z,30.19
2022-11-23T02:24:26.948Z,30.19
2022-11-23T02:24:58.423Z,30.38
2022-11-23T02:25:32.497Z,30.31
2022-11-23T02:26:08.030Z,30.13
2022-11-23T02:26:39.442Z,30.40
2022-11-23T02:27:10.858Z,30.31
2022-11-23T02:27:46.745Z,30.21
2022-11-23T02:28:19.144Z,29.99
2022-11-23T02:28:53.203Z,30.11
2022-11-23T02:29:24.951Z,30.23
2022-11-23T02:29:56.378Z,29.94
2022-11-23T02:30:28.788Z,30.29
2022-11-23T02:31:00.174Z,29.95
2022-11-23T02:31:31.765Z,30.08
2022-11-23T02:32:03.204Z,30.00
2022-11-23T02:32:34.636Z,30.31
2022-11-23T02:33:06.069Z,30.12
2022-11-23T02:33:40.340Z,29.97
2022-11-23T02:34:11.750Z,30.24
2022-11-23T02:34:43.178Z,30.08
2022-11-23T02:35:14.628Z,30.16
2022-11-23T02:35:49.826Z,29.89
2022-11-23T02:36:41.474Z,30.31
2022-11-23T02:37:13.006Z,29.94
2022-11-23T02:37:44.438Z,29.86
2022-11-23T02:38:15.878Z,30.20
2022-11-23T02:38:47.273Z,30.29
2022-11-23T02:39:21.006Z,30.12
2022-11-23T02:39:52.351Z,30.27
2022-11-23T02:40:33.836Z,29.85
2022-11-23T02:41:05.331Z,30.01
2022-11-23T02:41:44.072Z,30.20
2022-11-23T02:42:15.475Z,30.12
2022-11-23T02:42:46.960Z,30.22
2022-11-23T02:43:18.422Z,30.20
2022-11-23T02:43:49.740Z,29.98
2022-11-23T02:44:21.122Z,30.02
2022-11-23T02:45:00.490Z,29.86
2022-11-23T02:45:34.567Z,30.06
2022-11-23T02:46:06.108Z,29.95
2022-11-23T02:46:37.609Z,30.40
2022-11-23T02:47:09.191Z,30.10
2022-11-23T02:47:40.721Z,30.11
2022-11-23T02:48:12.217Z,30.13
2022-11-23T02:48:43.656Z,30.15
2022-11-23T02:49:15.081Z,30.28
2022-11-23T02:49:46.728Z,30.13
2022-11-23T02:50:18.180Z,30.39
2022-11-23T02:50:49.636Z,30.01
2022-11-23T02:51:21.158Z,30.11
2022-11-23T02:51:52.595Z,30.33
2022-11-23T02:52:24.067Z,30.23
2022-11-23T02:52:55.539Z,30.27
2022-11-23T02:53:26.995Z,30.28
2022-11-23T02:53:58.429Z,29.88
2022-11-23T02:54:29.931Z,30.09
2022-11-23T02:55:01.446Z,30.26
2022-11-23T02:55:32.823Z,30.00
2022-11-23T02:56:04.345Z,29.88
2022-11-23T02:56:35.912Z,30.00
2022-11-23T02:57:07.382Z,29.98
2022-11-23T02:57:38.792Z,30.21
2022-11-23T02:58:10.206Z,30.32
2022-11-23T02:58:41.676Z,29.99
2022-11-23T02:59:13.079Z,30.27
2022-11-23T02:59:44.560Z,30.34
2022-11-23T03:00:16.405Z,29.99
2022-11-23T03:00:47.904Z,30.27
2022-11-23T03:01:19.431Z,29.84
2022-11-23T03:01:50.958Z,30.22
2022-11-23T03:02:22.340Z,29.84
2022-11-23T03:02:53.834Z,30.09
2022-11-23T03:03:25.256Z,30.32
2022-11-23T03:03:56.644Z,30.29
2022-11-23T03:04:28.329Z,30.34
2022-11-23T03:04:59.783Z,30.36
2022-11-23T03:05:31.310Z,30.12
2022-11-23T03:06:02.785Z,30.00
2022-11-23T03:06:34.243Z,30.17
2022-11-23T03:07:05.799Z,30.18
2022-11-23T03:07:37.294Z,30.03
2022-11-23T03:08:08.769Z,29.97
2022-11-23T03:08:40.188Z,30.22
2022-11-23T03:09:11.566Z,30.24
2022-11-23T03:09:42.997Z,30.25
2022-11-23T03:10:14.428Z,30.21
2022-11-23T03:10:45.874Z,30.10
2022-11-23T03:11:17.273Z,30.14
2022-11-23T03:11:48.701Z,30.14
2022-11-23T03:12:20.220Z,30.24
2022-11-23T03:12:53.651Z,30.22
2022-11-23T03:13:25.100Z,30.25
2022-11-23T03:13:56.506Z,30.20
2022-11-23T03:14:27.925Z,30.25
2022-11-23T03:14:59.305Z,30.00
2022-11-23T03:15:30.705Z,30.20
2022-11-23T03:16:02.187Z,30.28
2022-11-23T03:16:33.651Z,30.31
2022-11-23T03:17:05.023Z,30.27
2022-11-23T03:17:36.624Z,30.01
2022-11-23T03:18:08.125Z,30.21
2022-11-23T03:18:39.555Z,30.28
2022-11-23T03:19:10.994Z,29.99
2022-11-23T03:19:42.443Z,30.36
2022-11-23T03:20:13.815Z,30.34
2022-11-23T03:20:45.192Z,30.05
2022-11-23T03:21:16.644Z,30.40
2022-11-23T03:21:48.074Z,30.07
2022-11-23T03:22:19.607Z,30.07
2022-11-23T03:22:51.099Z,30.28
2022-11-23T03:23:22.524Z,30.26
2022-11-23T03:23:54.898Z,30.31
2022-11-23T03:24:26.330Z,29.95
2022-11-23T03:24:57.767Z,30.29
2022-11-23T03:25:29.167Z,29.99
2022-11-23T03:26:00.571Z,30.32
2022-11-23T03:26:31.990Z,30.42
2022-11-23T03:27:03.447Z,29.96
2022-11-23T03:27:34.855Z,30.33
2022-11-23T03:28:06.315Z,30.06
2022-11-23T03:28:37.754Z,30.47
2022-11-23T03:29:09.170Z,30.04
2022-11-23T03:29:40.570Z,30.27
2022-11-23T03:30:12.111Z,30.37
2022-11-23T03:30:43.526Z,30.12
2022-11-23T03:31:14.894Z,30.37
2022-11-23T03:31:46.320Z,30.33
2022-11-23T03:32:17.718Z,30.12
2022-11-23T03:32:49.188Z,30.37
2022-11-23T03:33:20.656Z,30.13
2022-11-23T03:33:52.089Z,30.11
2022-11-23T03:34:23.505Z,30.22
2022-11-23T03:34:54.919Z,30.32
2022-11-23T03:35:26.324Z,30.44
2022-11-23T03:35:57.720Z,30.15
2022-11-23T03:36:29.111Z,30.28
2022-11-23T03:37:00.574Z,30.33
2022-11-23T03:37:32.016Z,30.11
2022-11-23T03:38:03.424Z,30.38
2022-11-23T03:38:34.929Z,30.42
2022-11-23T03:39:06.443Z,30.16
2022-11-23T03:39:39.138Z,30.37
2022-11-23T03:40:13.129Z,30.02
2022-11-23T03:40:44.972Z,30.42
2022-11-23T03:41:16.388Z,30.15
2022-11-23T03:41:47.766Z,30.35
2022-11-23T03:42:19.168Z,30.39
2022-11-23T03:42:50.574Z,30.38
2022-11-23T03:43:22.055Z,30.42
2022-11-23T03:43:53.520Z,30.04
2022-11-23T03:44:24.935Z,30.35
2022-11-23T03:44:56.328Z,30.22
2022-11-23T03:45:27.687Z,30.42
2022-11-23T03:45:59.151Z,30.14
2022-11-23T03:46:30.601Z,30.38
2022-11-23T03:47:01.964Z,30.47
2022-11-23T03:47:33.395Z,30.49
2022-11-23T03:48:04.943Z,30.25
2022-11-23T03:48:36.437Z,30.46
2022-11-23T03:49:07.920Z,30.44
2022-11-23T03:49:39.343Z,30.46
2022-11-23T03:50:10.797Z,30.52
2022-11-23T03:50:42.234Z,30.42
2022-11-23T03:51:13.673Z,30.53
2022-11-23T03:51:45.130Z,30.34
2022-11-23T03:52:16.555Z,30.39
2022-11-23T03:52:50.980Z,30.01
2022-11-23T03:53:22.419Z,30.48
2022-11-23T03:53:53.890Z,30.40
2022-11-23T03:54:25.412Z,30.52
2022-11-23T03:54:56.841Z,30.58
2022-11-23T03:55:28.294Z,30.16
2022-11-23T03:55:59.775Z,30.45
2022-11-23T03:56:31.280Z,30.35
2022-11-23T03:57:02.678Z,30.40
2022-11-23T03:57:34.100Z,30.11
2022-11-23T03:58:05.587Z,30.32
2022-11-23T03:58:36.949Z,30.66
2022-11-23T03:59:08.470Z,30.49
2022-11-23T03:59:39.900Z,30.53
2022-11-23T04:00:11.688Z,30.30
2022-11-23T04:00:43.165Z,30.26
2022-11-23T04:01:14.703Z,30.33
2022-11-23T04:01:46.132Z,30.35
2022-11-23T04:02:17.521Z,30.34
2022-11-23T04:02:48.959Z,30.26
2022-11-23T04:03:20.378Z,30.50
2022-11-23T04:03:51.976Z,30.37
2022-11-23T04:04:23.392Z,30.61
2022-11-23T04:04:54.811Z,30.28
2022-11-23T04:05:26.178Z,30.34
2022-11-23T04:05:57.575Z,30.39
2022-11-23T04:06:28.968Z,30.50
2022-11-23T04:07:00.357Z,30.11
2022-11-23T04:07:31.809Z,30.15
2022-11-23T04:08:03.233Z,30.47
2022-11-23T04:08:34.594Z,30.35
2022-11-23T04:09:06.028Z,30.28
2022-11-23T04:09:37.491Z,30.56
2022-11-23T04:10:09.066Z,30.27
2022-11-23T04:10:40.509Z,30.49
2022-11-23T04:11:11.929Z,30.44
2022-11-23T04:11:43.348Z,30.41
2022-11-23T04:12:14.761Z,30.42
2022-11-23T04:12:46.174Z,30.38
2022-11-23T04:13:17.544Z,30.45
2022-11-23T04:13:48.918Z,30.34
2022-11-23T04:14:20.308Z,30.26
2022-11-23T04:14:51.902Z,30.50
2022-11-23T04:15:23.359Z,30.25
2022-11-23T04:15:54.709Z,30.41
2022-11-23T04:16:26.119Z,30.40
2022-11-23T04:16:57.522Z,30.54
2022-11-23T04:17:28.946Z,30.48
2022-11-23T04:18:00.374Z,30.51
2022-11-23T04:18:31.813Z,30.58
2022-11-23T04:19:03.235Z,30.51
2022-11-23T04:19:34.956Z,30.54
2022-11-23T04:20:07.005Z,30.42
2022-11-23T04:20:38.561Z,30.27
2022-11-23T04:21:09.997Z,30.53
2022-11-23T04:21:41.458Z,30.52
2022-11-23T04:22:12.866Z,30.58
2022-11-23T04:22:44.300Z,30.60
2022-11-23T04:23:15.729Z,30.33
2022-11-23T04:23:47.132Z,30.54
2022-11-23T04:24:18.533Z,30.40
2022-11-23T04:24:49.899Z,30.29
2022-11-23T04:25:21.337Z,30.50
2022-11-23T04:25:52.812Z,30.67
2022-11-23T04:26:24.224Z,30.39
2022-11-23T04:26:55.673Z,30.38
2022-11-23T04:27:27.093Z,30.28
2022-11-23T04:27:58.530Z,30.40
2022-11-23T04:28:29.948Z,30.19
2022-11-23T04:29:01.356Z,30.40
2022-11-23T04:29:32.815Z,30.61
2022-11-23T04:30:04.784Z,30.64
2022-11-23T04:30:36.261Z,30.12
2022-11-23T04:31:07.815Z,30.28
2022-11-23T04:31:39.229Z,30.25
2022-11-23T04:32:10.707Z,30.59
2022-11-23T04:32:44.393Z,30.50
2022-11-23T04:33:15.872Z,30.70
2022-11-23T04:33:47.242Z,30.28
2022-11-23T04:34:18.831Z,30.56
2022-11-23T04:34:50.381Z,30.49
2022-11-23T04:35:21.896Z,30.38
2022-11-23T04:35:53.290Z,30.38
2022-11-23T04:36:24.683Z,30.32
2022-11-23T04:36:56.162Z,30.56
2022-11-23T04:37:27.625Z,30.51
2022-11-23T04:37:59.046Z,30.63
2022-11-23T04:38:30.445Z,30.53
2022-11-23T04:39:01.870Z,30.44
2022-11-23T04:39:33.612Z,30.60
2022-11-23T04:40:05.579Z,30.53
2022-11-23T04:40:37.032Z,30.54
2022-11-23T04:41:08.462Z,30.52
2022-11-23T04:41:39.925Z,30.60
2022-11-23T04:42:11.717Z,30.49
2022-11-23T04:42:43.157Z,30.54
2022-11-23T04:43:14.764Z,30.53
2022-11-23T04:43:47.540Z,30.58
2022-11-23T04:44:19.035Z,30.56
2022-11-23T04:44:50.458Z,30.54
2022-11-23T04:45:21.813Z,30.41
2022-11-23T04:45:53.255Z,30.31
2022-11-23T04:46:24.613Z,30.33
2022-11-23T04:46:56.042Z,30.26
2022-11-23T04:47:27.475Z,30.50
2022-11-23T04:47:59.146Z,30.25
2022-11-23T04:48:30.617Z,30.49
2022-11-23T04:49:02.036Z,30.28
2022-11-23T04:49:33.817Z,30.70
2022-11-23T04:50:05.546Z,30.64
2022-11-23T04:50:39.784Z,30.62
2022-11-23T04:51:12.059Z,30.64
2022-11-23T04:51:43.509Z,30.50
2022-11-23T04:52:15.042Z,30.45
2022-11-23T04:52:46.460Z,30.42
2022-11-23T04:53:17.888Z,30.46
2022-11-23T04:53:49.354Z,30.63
2022-11-23T04:54:20.847Z,30.62
2022-11-23T04:54:52.264Z,30.57
2022-11-23T04:55:23.713Z,30.36
2022-11-23T04:55:55.139Z,30.73
2022-11-23T04:56:26.616Z,30.74
2022-11-23T04:56:58.024Z,30.49
2022-11-23T04:57:29.489Z,30.83
2022-11-23T04:58:00.911Z,30.41
2022-11-23T04:58:34.549Z,30.37
2022-11-23T04:59:06.294Z,30.32
2022-11-23T04:59:37.817Z,30.46
2022-11-23T05:00:09.530Z,30.66
2022-11-23T05:00:41.016Z,30.71
2022-11-23T05:01:12.506Z,30.64
2022-11-23T05:01:43.960Z,30.81
2022-11-23T05:02:15.370Z,30.77
2022-11-23T05:02:46.840Z,30.54
2022-11-23T05:03:18.238Z,30.39
2022-11-23T05:03:49.645Z,30.67
2022-11-23T05:04:21.129Z,30.41
2022-11-23T05:04:52.515Z,30.71
2022-11-23T05:05:23.860Z,30.26
2022-11-23T05:05:57.949Z,30.25
2022-11-23T05:06:29.432Z,30.78
2022-11-23T05:07:00.922Z,30.64
2022-11-23T05:07:32.383Z,30.48
2022-11-23T05:08:03.876Z,30.65
2022-11-23T05:08:35.276Z,30.64
2022-11-23T05:09:06.676Z,30.60
2022-11-23T05:09:38.097Z,30.57
2022-11-23T05:10:09.681Z,30.69
2022-11-23T05:10:41.077Z,30.51
2022-11-23T05:11:12.509Z,30.38
2022-11-23T05:11:43.933Z,30.29
2022-11-23T05:12:15.319Z,30.67
2022-11-23T05:12:46.759Z,30.65
2022-11-23T05:13:18.187Z,30.57
2022-11-23T05:13:49.663Z,30.35
2022-11-23T05:14:21.018Z,30.67
2022-11-23T05:14:52.460Z,30.43
2022-11-23T05:15:23.854Z,30.55
2022-11-23T05:15:55.346Z,30.54
2022-11-23T05:16:26.767Z,30.45
2022-11-23T05:16:58.240Z,30.62
2022-11-23T05:17:29.660Z,30.42
2022-11-23T05:18:02.106Z,30.43
2022-11-23T05:18:33.606Z,30.54
2022-11-23T05:19:05.123Z,30.71
2022-11-23T05:19:36.660Z,30.40
2022-11-23T05:20:08.361Z,30.72
2022-11-23T05:20:39.824Z,30.42
2022-11-23T05:21:11.579Z,30.40
2022-11-23T05:21:43.018Z,30.54
2022-11-23T05:22:14.490Z,30.77
2022-11-23T05:22:45.935Z,30.40
2022-11-23T05:23:17.437Z,30.72
2022-11-23T05:23:48.969Z,30.44
2022-11-23T05:24:20.424Z,30.47
2022-11-23T05:24:51.802Z,30.81
2022-11-23T05:25:23.246Z,30.72
2022-11-23T05:25:54.634Z,30.76
2022-11-23T05:26:26.083Z,30.74
2022-11-23T05:26:57.489Z,30.60
2022-11-23T05:27:28.881Z,30.71
2022-11-23T05:28:07.523Z,30.25
2022-11-23T05:28:48.465Z,30.70
2022-11-23T05:29:19.877Z,30.64
2022-11-23T05:29:51.352Z,30.42
2022-11-23T05:30:22.787Z,30.55
2022-11-23T05:30:54.195Z,30.51
2022-11-23T05:31:25.589Z,30.65
2022-11-23T05:31:57.026Z,30.42
2022-11-23T05:32:28.425Z,30.57
2022-11-23T05:33:00.426Z,30.71
2022-11-23T05:33:31.939Z,30.54
2022-11-23T05:34:03.397Z,30.45
2022-11-23T05:34:34.975Z,30.67
2022-11-23T05:35:06.726Z,30.43
2022-11-23T05:35:38.186Z,30.71
2022-11-23T05:36:09.684Z,30.58
2022-11-23T05:36:42.501Z,30.44
2022-11-23T05:37:14.165Z,30.62
2022-11-23T05:37:45.572Z,30.60
2022-11-23T05:38:17.011Z,30.61
2022-11-23T05:38:48.418Z,30.66
2022-11-23T05:39:19.880Z,30.67
2022-11-23T05:39:51.412Z,30.83
2022-11-23T05:40:22.772Z,30.65
2022-11-23T05:40:54.203Z,30.68
2022-11-23T05:41:25.626Z,30.69
2022-11-23T05:41:57.057Z,30.62
2022-11-23T05:42:28.554Z,30.64
2022-11-23T05:42:59.933Z,30.46
2022-11-23T05:43:31.345Z,30.39
2022-11-23T05:44:02.734Z,30.45
2022-11-23T05:44:34.249Z,30.51
2022-11-23T05:45:11.131Z,30.50
2022-11-23T05:45:43.125Z,30.44
2022-11-23T05:46:14.607Z,30.70
2022-11-23T05:46:46.008Z,30.77
2022-11-23T05:47:17.429Z,30.51
2022-11-23T05:47:52.088Z,30.59
2022-11-23T05:48:23.616Z,30.44
2022-11-23T05:48:54.977Z,30.67
2022-11-23T05:49:26.490Z,30.38
2022-11-23T05:49:57.969Z,30.67
2022-11-23T05:50:29.394Z,30.39
2022-11-23T05:51:05.248Z,30.63
2022-11-23T05:51:37.105Z,30.43
2022-11-23T05:52:08.529Z,30.47
2022-11-23T05:52:39.953Z,30.66
2022-11-23T05:53:11.425Z,30.67
2022-11-23T05:53:42.888Z,30.71
2022-11-23T05:54:14.280Z,30.26
2022-11-23T05:54:45.698Z,30.64
2022-11-23T05:55:17.214Z,30.38
2022-11-23T05:55:48.708Z,30.38
2022-11-23T05:56:20.137Z,30.28
2022-11-23T05:56:51.498Z,30.63
2022-11-23T05:57:22.902Z,30.66
2022-11-23T05:57:54.345Z,30.33
2022-11-23T05:58:25.829Z,30.62
2022-11-23T05:58:57.206Z,30.51
2022-11-23T05:59:28.733Z,30.70
2022-11-23T06:00:00.193Z,30.63
2022-11-23T06:00:31.646Z,30.53
2022-11-23T06:01:03.051Z,30.40
2022-11-23T06:01:34.609Z,30.41
2022-11-23T06:02:06.136Z,30.86
2022-11-23T06:02:41.004Z,30.48
2022-11-23T06:03:12.874Z,30.65
2022-11-23T06:03:44.326Z,30.60
2022-11-23T06:04:16.010Z,30.47
2022-11-23T06:04:47.593Z,30.37
2022-11-23T06:05:18.990Z,30.35
2022-11-23T06:05:50.466Z,30.58
2022-11-23T06:06:21.877Z,30.60
2022-11-23T06:06:53.246Z,30.54
2022-11-23T06:07:24.699Z,30.62
2022-11-23T06:07:56.118Z,30.46
2022-11-23T06:08:27.512Z,30.64
2022-11-23T06:08:58.990Z,30.26
2022-11-23T06:09:30.898Z,30.40
2022-11-23T06:10:02.644Z,30.60
2022-11-23T06:10:34.000Z,30.43
2022-11-23T06:11:05.547Z,30.25
2022-11-23T06:11:36.984Z,30.36
2022-11-23T06:12:08.441Z,30.27
2022-11-23T06:12:39.864Z,30.50
2022-11-23T06:13:11.267Z,30.73
2022-11-23T06:13:42.721Z,30.24
2022-11-23T06:14:14.665Z,30.38
2022-11-23T06:14:46.187Z,30.59
2022-11-23T06:15:17.576Z,30.36
2022-11-23T06:15:48.976Z,30.40
2022-11-23T06:16:20.517Z,30.34
2022-11-23T06:16:51.947Z,30.36
2022-11-23T06:17:23.387Z,30.72
2022-11-23T06:17:58.497Z,30.64
2022-11-23T06:18:29.877Z,30.49
2022-11-23T06:19:01.493Z,30.46
2022-11-23T06:19:33.095Z,30.25
2022-11-23T06:20:05.563Z,30.44
2022-11-23T06:20:37.004Z,30.50
2022-11-23T06:21:08.373Z,30.80
2022-11-23T06:21:39.794Z,30.69
2022-11-23T06:22:11.168Z,30.48
2022-11-23T06:22:42.664Z,30.65
2022-11-23T06:23:14.076Z,30.63
2022-11-23T06:23:48.331Z,30.39
2022-11-23T06:24:19.797Z,30.74
2022-11-23T06:24:51.223Z,30.33
2022-11-23T06:25:22.661Z,30.63
2022-11-23T06:25:54.200Z,30.65
2022-11-23T06:26:25.637Z,30.63
2022-11-23T06:26:57.127Z,30.37
2022-11-23T06:27:28.600Z,30.42
2022-11-23T06:28:00.491Z,30.62
2022-11-23T06:28:31.940Z,30.40
2022-11-23T06:29:03.416Z,30.75
2022-11-23T06:29:35.022Z,30.57
2022-11-23T06:30:06.982Z,30.53
2022-11-23T06:30:38.388Z,30.53
2022-11-23T06:31:09.861Z,30.48
2022-11-23T06:31:41.223Z,30.72
2022-11-23T06:32:12.636Z,30.45
2022-11-23T06:32:44.012Z,30.47
2022-11-23T06:33:15.367Z,30.43
2022-11-23T06:33:46.756Z,30.50
2022-11-23T06:34:18.140Z,30.36
2022-11-23T06:34:49.570Z,30.30
2022-11-23T06:35:20.990Z,30.64
2022-11-23T06:35:55.414Z,30.36
2022-11-23T06:36:26.826Z,30.31
2022-11-23T06:36:58.268Z,30.28
2022-11-23T06:37:29.720Z,30.36
2022-11-23T06:38:01.250Z,30.62
2022-11-23T06:38:32.669Z,30.48
2022-11-23T06:39:04.108Z,30.60
2022-11-23T06:39:35.681Z,30.36
2022-11-23T06:40:07.551Z,30.54
2022-11-23T06:40:38.952Z,30.17
2022-11-23T06:41:10.364Z,30.54
2022-11-23T06:41:41.724Z,30.40
2022-11-23T06:43:04.509Z,30.41
2022-11-23T06:43:35.908Z,30.35
2022-11-23T06:44:07.338Z,30.59
2022-11-23T06:44:38.819Z,30.47
2022-11-23T06:45:10.413Z,30.29
2022-11-23T06:45:41.796Z,30.61
2022-11-23T06:46:13.258Z,30.52
2022-11-23T06:46:44.595Z,30.62
2022-11-23T06:47:18.356Z,30.32
2022-11-23T06:47:51.352Z,30.35
2022-11-23T06:48:22.869Z,30.54
2022-11-23T06:48:54.333Z,30.42
2022-11-23T06:49:25.737Z,30.56
2022-11-23T06:49:57.136Z,30.46
2022-11-23T06:50:28.596Z,30.51
2022-11-23T06:51:00.089Z,30.67
2022-11-23T06:51:31.490Z,30.61
2022-11-23T06:52:02.944Z,30.33
2022-11-23T06:52:34.400Z,30.28